Aviation Digital Data Service (ADDS)

Output produced by METARs form (2310 UTC 15 August 2018)
found at http://www.aviationweather.gov/adds/metars/
 
GBYD 152300Z 26005KT 9999 FEW011 26/23 Q1015
TAF GBYD 151730Z 1518/1624 26008KT 9999 SCT013 
     TEMPO 1522/1604 4000 TSRA BKN010 FEW025CB